createdAt,value
2022-09-14T00:00:31.147Z,16.11
2022-09-14T00:03:25.770Z,16.07
2022-09-14T00:04:29.013Z,16.05
2022-09-14T00:05:33.361Z,16.05
2022-09-14T00:06:39.740Z,16.04
2022-09-14T00:07:47.166Z,16.04
2022-09-14T00:08:51.736Z,16.05
2022-09-14T00:09:56.087Z,16.04
2022-09-14T00:10:59.416Z,16.05
2022-09-14T00:12:04.224Z,16.06
2022-09-14T00:13:07.799Z,16.06
2022-09-14T00:14:12.238Z,16.06
2022-09-14T00:15:21.406Z,16.07
2022-09-14T00:16:27.097Z,16.08
2022-09-14T00:17:31.802Z,16.07
2022-09-14T00:18:37.029Z,16.07
2022-09-14T00:19:41.364Z,16.06
2022-09-14T00:20:44.816Z,16.06
2022-09-14T00:21:52.447Z,16.07
2022-09-14T00:22:56.367Z,16.07
2022-09-14T00:24:00.746Z,16.07
2022-09-14T00:25:04.415Z,16.07
2022-09-14T00:26:10.486Z,16.06
2022-09-14T00:27:14.956Z,16.05
2022-09-14T00:28:18.404Z,16.04
2022-09-14T00:29:24.366Z,16.03
2022-09-14T00:30:28.766Z,16.02
2022-09-14T00:31:40.598Z,16.02
2022-09-14T00:32:45.907Z,16.00
2022-09-14T00:33:51.566Z,16.00
2022-09-14T00:34:54.997Z,15.99
2022-09-14T00:36:06.774Z,15.98
2022-09-14T00:37:10.770Z,15.97
2022-09-14T00:38:15.268Z,15.96
2022-09-14T00:39:19.617Z,15.96
2022-09-14T00:40:24.639Z,15.96
2022-09-14T00:42:15.817Z,15.96
2022-09-14T00:43:25.255Z,15.94
2022-09-14T00:45:02.167Z,15.90
2022-09-14T00:46:06.853Z,15.87
2022-09-14T00:47:13.077Z,15.84
2022-09-14T00:48:22.677Z,15.82
2022-09-14T00:49:29.617Z,15.78
2022-09-14T00:50:49.588Z,15.73
2022-09-14T00:52:18.057Z,15.69
2022-09-14T00:53:22.087Z,15.61
2022-09-14T00:54:27.199Z,15.60
2022-09-14T00:55:44.957Z,15.59
2022-09-14T00:56:49.115Z,15.58
2022-09-14T00:57:55.836Z,15.59
2022-09-14T00:59:13.686Z,15.59
2022-09-14T01:00:25.058Z,15.59
2022-09-14T01:01:38.907Z,15.58
2022-09-14T01:02:53.834Z,15.59
2022-09-14T01:03:59.690Z,15.58
2022-09-14T01:05:07.012Z,15.57
2022-09-14T01:06:18.906Z,15.53
2022-09-14T01:07:35.056Z,15.52
2022-09-14T01:09:00.880Z,15.49
2022-09-14T01:11:04.707Z,15.48
2022-09-14T01:12:15.110Z,15.41
2022-09-14T01:13:29.528Z,15.38
2022-09-14T01:15:00.565Z,15.33
2022-09-14T01:16:13.164Z,15.29
2022-09-14T01:17:37.429Z,15.24
2022-09-14T01:18:48.343Z,15.20
2022-09-14T01:20:13.335Z,15.16
2022-09-14T01:21:21.665Z,15.10
2022-09-14T01:23:05.654Z,15.04
2022-09-14T01:25:11.750Z,14.93
2022-09-14T01:26:55.873Z,14.81
2022-09-14T01:28:15.423Z,14.76
2022-09-14T01:29:49.671Z,14.75
2022-09-14T01:32:45.185Z,14.71
2022-09-14T01:36:38.386Z,14.68
2022-09-14T01:40:02.351Z,14.62
2022-09-14T01:41:10.540Z,14.62
2022-09-14T01:42:17.183Z,14.60
2022-09-14T01:43:26.426Z,14.60
2022-09-14T01:44:34.757Z,14.59
2022-09-14T01:45:49.227Z,14.58
2022-09-14T01:46:57.706Z,14.58
2022-09-14T01:48:04.359Z,14.58
2022-09-14T01:49:18.645Z,14.57
2022-09-14T01:50:35.414Z,14.56
2022-09-14T01:51:48.666Z,14.54
2022-09-14T01:52:57.056Z,14.53
2022-09-14T01:54:29.317Z,14.51
2022-09-14T01:55:55.268Z,14.49
2022-09-14T01:57:38.017Z,14.44
2022-09-14T01:59:10.082Z,14.43
2022-09-14T02:01:03.394Z,14.37
2022-09-14T02:03:33.732Z,14.37
2022-09-14T02:04:49.297Z,14.37
2022-09-14T02:06:02.938Z,14.37
2022-09-14T02:07:37.716Z,14.33
2022-09-14T02:08:51.987Z,14.33
2022-09-14T02:09:59.933Z,14.31
2022-09-14T02:11:47.005Z,14.29
2022-09-14T02:12:53.104Z,14.26
2022-09-14T02:13:58.349Z,14.27
2022-09-14T02:17:27.956Z,14.20
2022-09-14T02:18:53.444Z,14.18
2022-09-14T02:20:31.323Z,14.16
2022-09-14T02:22:05.955Z,14.13
2022-09-14T02:23:21.625Z,14.12
2022-09-14T02:24:26.303Z,14.09
2022-09-14T02:25:31.240Z,14.07
2022-09-14T02:26:36.104Z,14.04
2022-09-14T02:28:09.356Z,14.01
2022-09-14T02:29:21.795Z,13.97
2022-09-14T02:30:59.496Z,13.91
2022-09-14T02:32:22.656Z,13.85
2022-09-14T02:33:31.837Z,13.79
2022-09-14T02:34:50.962Z,13.75
2022-09-14T02:38:03.123Z,13.65
2022-09-14T02:39:15.562Z,13.60
2022-09-14T02:40:56.665Z,13.50
2022-09-14T02:42:06.260Z,13.47
2022-09-14T02:43:20.256Z,13.42
2022-09-14T02:44:46.308Z,13.36
2022-09-14T02:48:12.411Z,13.19
2022-09-14T02:49:21.190Z,13.13
2022-09-14T02:50:47.868Z,13.08
2022-09-14T02:51:56.732Z,13.03
2022-09-14T02:54:32.595Z,12.93
2022-09-14T02:55:44.887Z,12.89
2022-09-14T02:56:49.685Z,12.86
2022-09-14T02:58:18.798Z,12.81
2022-09-14T02:59:22.215Z,12.80
2022-09-14T03:00:29.704Z,12.78
2022-09-14T03:01:35.060Z,12.80
2022-09-14T03:02:41.215Z,12.81
2022-09-14T03:03:46.344Z,12.81
2022-09-14T03:04:51.199Z,12.78
2022-09-14T03:06:33.473Z,12.78
2022-09-14T03:07:37.045Z,12.77
2022-09-14T03:09:25.931Z,12.78
2022-09-14T03:10:31.400Z,12.77
2022-09-14T03:11:38.340Z,12.77
2022-09-14T03:12:42.911Z,12.76
2022-09-14T03:13:52.738Z,12.75
2022-09-14T03:15:16.346Z,12.73
2022-09-14T03:17:24.265Z,12.76
2022-09-14T03:18:35.782Z,12.73
2022-09-14T03:19:46.674Z,12.71
2022-09-14T03:21:05.466Z,12.72
2022-09-14T03:23:59.906Z,12.70
2022-09-14T03:25:04.042Z,12.70
2022-09-14T03:26:10.146Z,12.70
2022-09-14T03:27:15.345Z,12.68
2022-09-14T03:28:19.846Z,12.66
2022-09-14T03:29:23.215Z,12.65
2022-09-14T03:30:29.441Z,12.65
2022-09-14T03:31:33.233Z,12.64
2022-09-14T03:32:37.773Z,12.64
2022-09-14T03:33:42.846Z,12.64
2022-09-14T03:34:47.455Z,12.65
2022-09-14T03:35:51.006Z,12.65
2022-09-14T03:36:55.566Z,12.63
2022-09-14T03:37:59.866Z,12.64
2022-09-14T03:39:07.294Z,12.64
2022-09-14T03:40:22.186Z,12.66
2022-09-14T03:41:27.865Z,12.67
2022-09-14T03:42:32.019Z,12.69
2022-09-14T03:43:36.599Z,12.71
2022-09-14T03:44:40.369Z,12.72
2022-09-14T03:46:10.099Z,12.73
2022-09-14T03:47:13.662Z,12.75
2022-09-14T03:48:18.007Z,12.74
2022-09-14T03:49:23.005Z,12.75
2022-09-14T03:50:27.430Z,12.75
2022-09-14T03:51:35.638Z,12.73
2022-09-14T03:52:39.405Z,12.72
2022-09-14T03:53:45.217Z,12.72
2022-09-14T03:54:48.500Z,12.73
2022-09-14T03:55:53.147Z,12.73
2022-09-14T03:56:56.634Z,12.74
2022-09-14T03:58:00.956Z,12.73
2022-09-14T03:59:04.347Z,12.73
2022-09-14T04:00:10.735Z,12.73
2022-09-14T04:01:18.804Z,12.72
2022-09-14T04:02:23.486Z,12.71
2022-09-14T04:03:26.934Z,12.70
2022-09-14T04:04:32.924Z,12.68
2022-09-14T04:05:36.227Z,12.67
2022-09-14T04:06:40.806Z,12.65
2022-09-14T04:07:44.138Z,12.63
2022-09-14T04:08:48.941Z,12.61
2022-09-14T04:09:52.245Z,12.59
2022-09-14T04:10:56.484Z,12.55
2022-09-14T04:11:59.777Z,12.54
2022-09-14T04:13:03.946Z,12.52
2022-09-14T04:14:08.693Z,12.52
2022-09-14T04:15:12.907Z,12.52
2022-09-14T04:16:17.626Z,12.52
2022-09-14T04:17:22.606Z,12.52
2022-09-14T04:18:26.307Z,12.53
2022-09-14T04:19:33.574Z,12.52
2022-09-14T04:20:36.937Z,12.52
2022-09-14T04:21:41.304Z,12.52
2022-09-14T04:22:45.018Z,12.52
2022-09-14T04:25:14.325Z,12.54
2022-09-14T04:26:19.034Z,12.53
2022-09-14T04:27:23.634Z,12.50
2022-09-14T04:28:26.923Z,12.47
2022-09-14T04:29:32.406Z,12.47
2022-09-14T04:30:35.767Z,12.46
2022-09-14T04:31:40.452Z,12.45
2022-09-14T04:32:45.036Z,12.45
2022-09-14T04:33:50.945Z,12.45
2022-09-14T04:34:57.034Z,12.45
2022-09-14T04:36:02.099Z,12.45
2022-09-14T04:37:06.575Z,12.45
2022-09-14T04:38:09.746Z,12.44
2022-09-14T04:39:15.509Z,12.45
2022-09-14T04:40:18.874Z,12.46
2022-09-14T04:41:24.140Z,12.48
2022-09-14T04:42:27.727Z,12.47
2022-09-14T04:43:32.271Z,12.47
2022-09-14T04:44:35.630Z,12.47
2022-09-14T04:45:43.857Z,12.46
2022-09-14T04:46:47.331Z,12.47
2022-09-14T04:47:51.584Z,12.47
2022-09-14T04:48:55.019Z,12.47
2022-09-14T04:50:00.895Z,12.48
2022-09-14T04:51:04.547Z,12.50
2022-09-14T04:52:08.875Z,12.52
2022-09-14T04:53:12.575Z,12.55
2022-09-14T04:54:18.677Z,12.58
2022-09-14T04:55:21.890Z,12.61
2022-09-14T04:56:27.203Z,12.65
2022-09-14T04:57:31.776Z,12.67
2022-09-14T04:58:36.521Z,12.69
2022-09-14T04:59:40.886Z,12.72
2022-09-14T05:00:44.128Z,12.75
2022-09-14T05:01:49.484Z,12.77
2022-09-14T05:02:52.881Z,12.80
2022-09-14T05:03:57.948Z,12.84
2022-09-14T05:05:02.750Z,12.87
2022-09-14T05:06:08.871Z,12.91
2022-09-14T05:07:12.280Z,12.95
2022-09-14T05:08:16.695Z,12.97
2022-09-14T05:09:21.299Z,13.02
2022-09-14T05:10:24.765Z,13.07
2022-09-14T05:11:31.283Z,13.11
2022-09-14T05:12:35.334Z,13.14
2022-09-14T05:13:39.455Z,13.19
2022-09-14T05:14:42.673Z,13.23
2022-09-14T05:15:47.046Z,13.26
2022-09-14T05:16:51.250Z,13.28
2022-09-14T05:17:54.495Z,13.31
2022-09-14T05:19:01.601Z,13.33
2022-09-14T05:20:07.963Z,13.38
2022-09-14T05:21:13.614Z,13.43
2022-09-14T05:22:16.987Z,13.48
2022-09-14T05:23:21.529Z,13.52
2022-09-14T05:24:26.118Z,13.57
2022-09-14T05:25:29.313Z,13.63
2022-09-14T05:26:33.945Z,13.71
2022-09-14T05:27:38.213Z,13.84
2022-09-14T05:28:41.576Z,13.97
2022-09-14T05:29:46.063Z,14.08
2022-09-14T05:30:49.275Z,14.12
2022-09-14T05:31:53.515Z,14.16
2022-09-14T05:32:58.199Z,14.24
2022-09-14T05:34:02.519Z,14.34
2022-09-14T05:35:07.947Z,14.44
2022-09-14T05:36:12.487Z,14.54
2022-09-14T05:37:15.703Z,14.62
2022-09-14T05:38:20.157Z,14.73
2022-09-14T05:39:25.280Z,14.91
2022-09-14T05:40:28.612Z,15.10
2022-09-14T05:41:33.068Z,15.33
2022-09-14T05:42:36.445Z,15.59
2022-09-14T05:43:41.137Z,15.86
2022-09-14T05:44:44.345Z,16.15
2022-09-14T05:45:48.665Z,16.42
2022-09-14T05:46:51.885Z,16.72
2022-09-14T05:47:56.141Z,16.99
2022-09-14T05:48:59.428Z,17.25
2022-09-14T05:50:03.714Z,17.45
2022-09-14T05:51:11.511Z,17.67
2022-09-14T05:52:15.820Z,17.89
2022-09-14T05:53:18.926Z,18.15
2022-09-14T05:54:23.209Z,18.39
2022-09-14T05:55:29.077Z,18.63
2022-09-14T05:56:33.381Z,18.85
2022-09-14T05:57:36.857Z,18.93
2022-09-14T05:58:42.604Z,19.02
2022-09-14T05:59:45.816Z,19.12
2022-09-14T06:00:50.115Z,19.24
2022-09-14T06:01:54.451Z,19.38
2022-09-14T06:02:57.749Z,19.55
2022-09-14T06:04:03.622Z,19.66
2022-09-14T06:05:07.506Z,19.77
2022-09-14T06:06:15.298Z,19.87
2022-09-14T06:07:21.503Z,19.88
2022-09-14T06:08:25.933Z,19.92
2022-09-14T06:09:33.216Z,19.95
2022-09-14T06:10:36.931Z,20.00
2022-09-14T06:11:41.145Z,20.07
2022-09-14T06:12:44.335Z,20.16
2022-09-14T06:13:49.897Z,20.32
2022-09-14T06:14:54.285Z,20.51
2022-09-14T06:15:57.328Z,20.66
2022-09-14T06:17:01.708Z,20.78
2022-09-14T06:18:05.217Z,20.88
2022-09-14T06:19:11.615Z,21.00
2022-09-14T06:20:15.893Z,21.13
2022-09-14T06:21:21.215Z,21.23
2022-09-14T06:22:25.698Z,21.25
2022-09-14T06:23:29.207Z,21.29
2022-09-14T06:24:33.640Z,21.36
2022-09-14T06:25:36.765Z,21.43
2022-09-14T06:26:41.405Z,21.45
2022-09-14T06:27:45.014Z,21.50
2022-09-14T06:28:49.813Z,21.50
2022-09-14T06:29:54.091Z,21.48
2022-09-14T06:30:59.004Z,21.46
2022-09-14T06:32:30.165Z,21.36
2022-09-14T06:33:33.607Z,21.25
2022-09-14T06:34:37.844Z,21.23
2022-09-14T06:35:42.444Z,21.27
2022-09-14T06:36:57.135Z,21.32
2022-09-14T06:38:00.174Z,21.37
2022-09-14T06:39:04.328Z,21.38
2022-09-14T06:40:08.584Z,21.33
2022-09-14T06:41:14.246Z,21.31
2022-09-14T06:42:18.291Z,21.30
2022-09-14T06:43:25.048Z,21.35
2022-09-14T06:44:29.294Z,21.41
2022-09-14T06:45:32.839Z,21.44
2022-09-14T06:46:37.122Z,21.45
2022-09-14T06:47:40.157Z,21.42
2022-09-14T06:48:49.396Z,21.38
2022-09-14T06:49:54.129Z,21.28
2022-09-14T06:50:57.383Z,21.17
2022-09-14T06:52:03.185Z,21.11
2022-09-14T06:53:06.753Z,21.07
2022-09-14T06:54:13.803Z,21.04
2022-09-14T06:55:18.255Z,21.00
2022-09-14T06:56:22.825Z,20.96
2022-09-14T06:57:27.066Z,20.93
2022-09-14T06:58:30.092Z,20.92
2022-09-14T06:59:34.423Z,20.91
2022-09-14T07:00:41.339Z,20.92
2022-09-14T07:01:46.071Z,20.95
2022-09-14T07:02:53.593Z,21.00
2022-09-14T07:04:01.180Z,21.07
2022-09-14T07:05:04.858Z,21.13
2022-09-14T07:06:11.177Z,21.22
2022-09-14T07:07:16.784Z,21.30
2022-09-14T07:08:20.989Z,21.36
2022-09-14T07:09:25.817Z,21.40
2022-09-14T07:10:28.812Z,21.43
2022-09-14T07:11:33.777Z,21.42
2022-09-14T07:12:36.997Z,21.45
2022-09-14T07:13:41.257Z,21.51
2022-09-14T07:14:44.498Z,21.55
2022-09-14T07:15:50.636Z,21.61
2022-09-14T07:16:53.715Z,21.71
2022-09-14T07:17:59.077Z,21.81
2022-09-14T07:19:06.666Z,21.91
2022-09-14T07:20:11.799Z,22.01
2022-09-14T07:21:16.885Z,22.09
2022-09-14T07:22:22.518Z,22.15
2022-09-14T07:23:25.727Z,22.18
2022-09-14T07:24:29.854Z,22.21
2022-09-14T07:25:33.042Z,22.22
2022-09-14T07:26:40.924Z,22.18
2022-09-14T07:27:44.239Z,22.14
2022-09-14T07:28:50.272Z,22.13
2022-09-14T07:29:54.465Z,22.14
2022-09-14T07:30:59.100Z,22.18
2022-09-14T07:32:04.090Z,22.18
2022-09-14T07:33:07.236Z,22.14
2022-09-14T07:34:12.587Z,22.12
2022-09-14T07:35:16.094Z,22.11
2022-09-14T07:36:20.535Z,22.12
2022-09-14T07:37:24.995Z,22.15
2022-09-14T07:38:57.742Z,22.15
2022-09-14T07:39:54.477Z,22.16
2022-09-14T07:40:58.524Z,22.15
2022-09-14T07:42:02.775Z,22.13
2022-09-14T07:43:06.747Z,22.10
2022-09-14T07:44:11.637Z,22.08
2022-09-14T07:45:14.964Z,22.05
2022-09-14T07:46:19.666Z,22.05
2022-09-14T07:47:23.944Z,22.05
2022-09-14T07:48:26.966Z,22.06
2022-09-14T07:49:31.602Z,22.06
2022-09-14T07:50:34.868Z,22.08
2022-09-14T07:51:39.391Z,22.10
2022-09-14T07:52:43.733Z,22.09
2022-09-14T07:53:47.865Z,22.12
2022-09-14T07:54:51.137Z,22.13
2022-09-14T07:55:55.433Z,22.12
2022-09-14T07:56:59.608Z,22.13
2022-09-14T07:58:02.674Z,22.16
2022-09-14T08:00:31.564Z,22.18
2022-09-14T08:01:35.194Z,22.17
2022-09-14T08:02:39.504Z,22.13
2022-09-14T08:03:43.971Z,22.12
2022-09-14T08:04:48.567Z,22.07
2022-09-14T08:05:59.464Z,22.02
2022-09-14T08:07:03.707Z,21.98
2022-09-14T08:08:08.501Z,21.96
2022-09-14T08:09:12.851Z,21.97
2022-09-14T08:10:15.926Z,21.98
2022-09-14T08:11:21.905Z,21.99
2022-09-14T08:12:26.697Z,22.02
2022-09-14T08:13:30.001Z,22.03
2022-09-14T08:14:34.339Z,22.05
2022-09-14T08:15:37.614Z,22.09
2022-09-14T08:16:42.130Z,22.10
2022-09-14T08:17:45.351Z,22.15
2022-09-14T08:18:50.040Z,22.20
2022-09-14T08:19:53.196Z,22.25
2022-09-14T08:20:57.542Z,22.31
2022-09-14T08:22:01.681Z,22.39
2022-09-14T08:23:04.789Z,22.46
2022-09-14T08:24:10.336Z,22.50
2022-09-14T08:25:13.441Z,22.56
2022-09-14T08:26:18.882Z,22.61
2022-09-14T08:27:23.307Z,22.66
2022-09-14T08:28:26.432Z,22.78
2022-09-14T08:29:30.452Z,22.84
2022-09-14T08:30:34.197Z,22.90
2022-09-14T08:31:40.411Z,22.95
2022-09-14T08:32:44.365Z,23.01
2022-09-14T08:33:50.735Z,23.02
2022-09-14T08:34:55.088Z,23.00
2022-09-14T08:36:08.377Z,23.03
2022-09-14T08:37:13.341Z,23.07
2022-09-14T08:38:16.450Z,23.11
2022-09-14T08:39:22.226Z,23.18
2022-09-14T08:40:25.157Z,23.29
2022-09-14T08:41:31.360Z,23.43
2022-09-14T08:42:34.863Z,23.53
2022-09-14T08:43:40.189Z,23.55
2022-09-14T08:44:46.303Z,23.63
2022-09-14T08:45:54.402Z,23.73
2022-09-14T08:47:03.354Z,23.81
2022-09-14T08:48:11.012Z,23.92
2022-09-14T08:49:20.483Z,24.05
2022-09-14T08:50:25.796Z,24.13
2022-09-14T08:51:29.415Z,24.26
2022-09-14T08:52:36.295Z,24.37
2022-09-14T08:53:41.258Z,24.42
2022-09-14T08:54:47.626Z,24.49
2022-09-14T08:55:54.556Z,24.55
2022-09-14T08:57:03.425Z,24.65
2022-09-14T08:58:20.911Z,24.68
2022-09-14T08:59:40.985Z,24.64
2022-09-14T09:00:49.435Z,24.58
2022-09-14T09:02:02.635Z,24.50
2022-09-14T09:03:32.560Z,24.41
2022-09-14T09:04:47.126Z,24.32
2022-09-14T09:05:53.767Z,24.32
2022-09-14T09:07:02.401Z,24.34
2022-09-14T09:08:13.595Z,24.38
2022-09-14T09:09:23.223Z,24.43
2022-09-14T09:10:28.025Z,24.48
2022-09-14T09:11:38.627Z,24.55
2022-09-14T09:12:45.790Z,24.57
2022-09-14T09:13:50.796Z,24.64
2022-09-14T09:14:56.225Z,24.72
2022-09-14T09:16:01.307Z,24.85
2022-09-14T09:17:10.030Z,25.07
2022-09-14T09:18:15.898Z,25.26
2022-09-14T09:19:23.963Z,25.47
2022-09-14T09:20:32.982Z,25.69
2022-09-14T09:21:39.845Z,25.87
2022-09-14T09:22:46.574Z,26.09
2022-09-14T09:23:49.493Z,26.24
2022-09-14T09:24:55.798Z,26.34
2022-09-14T09:26:03.083Z,26.32
2022-09-14T09:27:10.928Z,26.31
2022-09-14T09:28:15.734Z,26.31
2022-09-14T09:29:18.740Z,26.32
2022-09-14T09:30:41.628Z,26.41
2022-09-14T09:31:47.682Z,26.40
2022-09-14T09:33:17.083Z,26.35
2022-09-14T09:34:39.742Z,26.23
2022-09-14T09:36:15.042Z,26.09
2022-09-14T09:37:20.480Z,26.02
2022-09-14T09:38:27.430Z,26.00
2022-09-14T09:39:35.960Z,26.07
2022-09-14T09:40:45.429Z,26.16
2022-09-14T09:41:56.902Z,26.32
2022-09-14T09:43:10.833Z,26.45
2022-09-14T09:44:15.175Z,26.49
2022-09-14T09:45:18.374Z,26.53
2022-09-14T09:46:22.677Z,26.52
2022-09-14T09:47:29.505Z,26.49
2022-09-14T09:48:35.146Z,26.46
2022-09-14T09:49:39.430Z,26.48
2022-09-14T09:50:49.547Z,26.45
2022-09-14T09:51:57.466Z,26.36
2022-09-14T09:53:06.508Z,26.20
2022-09-14T09:54:25.401Z,26.04
2022-09-14T09:55:38.616Z,25.98
2022-09-14T09:57:20.263Z,26.06
2022-09-14T09:58:31.240Z,26.12
2022-09-14T09:59:46.503Z,26.26
2022-09-14T10:00:56.736Z,26.35
2022-09-14T10:02:31.949Z,26.44
2022-09-14T10:04:18.874Z,26.53
2022-09-14T10:06:00.407Z,26.67
2022-09-14T10:10:27.354Z,26.36
2022-09-14T10:11:55.302Z,26.19
2022-09-14T10:13:30.633Z,26.15
2022-09-14T10:15:05.771Z,26.09
2022-09-14T10:16:42.974Z,26.09
2022-09-14T10:18:08.144Z,26.03
2022-09-14T10:19:28.846Z,25.97
2022-09-14T10:21:42.670Z,25.73
2022-09-14T10:23:05.832Z,25.61
2022-09-14T10:24:42.725Z,25.57
2022-09-14T10:26:56.785Z,25.31
2022-09-14T10:28:12.170Z,24.97
2022-09-14T10:29:30.713Z,24.79
2022-09-14T10:30:40.994Z,24.63
2022-09-14T10:31:45.516Z,24.54
2022-09-14T10:32:59.533Z,24.40
2022-09-14T10:34:02.755Z,24.24
2022-09-14T10:35:14.063Z,24.08
2022-09-14T10:36:23.452Z,23.92
2022-09-14T10:37:34.202Z,23.77
2022-09-14T10:38:40.588Z,23.63
2022-09-14T10:39:51.144Z,23.56
2022-09-14T10:41:00.666Z,23.56
2022-09-14T10:42:09.925Z,23.56
2022-09-14T10:43:16.327Z,23.57
2022-09-14T10:44:41.876Z,23.62
2022-09-14T10:45:53.043Z,23.68
2022-09-14T10:47:12.213Z,23.67
2022-09-14T10:48:41.382Z,23.61
2022-09-14T10:50:16.604Z,23.53
2022-09-14T10:51:37.149Z,23.45
2022-09-14T10:52:45.170Z,23.32
2022-09-14T10:53:54.501Z,23.22
2022-09-14T10:55:20.253Z,23.15
2022-09-14T10:56:27.488Z,23.09
2022-09-14T10:57:40.562Z,23.05
2022-09-14T10:58:57.154Z,22.96
2022-09-14T11:00:07.468Z,22.88
2022-09-14T11:01:22.412Z,22.81
2022-09-14T11:02:47.645Z,22.71
2022-09-14T11:04:18.187Z,22.65
2022-09-14T11:05:23.856Z,22.63
2022-09-14T11:06:37.765Z,22.61
2022-09-14T11:07:51.938Z,22.60
2022-09-14T11:09:00.044Z,22.55
2022-09-14T11:10:11.788Z,22.52
2022-09-14T11:11:27.455Z,22.52
2022-09-14T11:12:36.524Z,22.47
2022-09-14T11:13:58.244Z,22.40
2022-09-14T11:15:10.010Z,22.32
2022-09-14T11:16:23.745Z,22.29
2022-09-14T11:17:41.614Z,22.24
2022-09-14T11:18:52.435Z,22.20
2022-09-14T11:20:02.229Z,22.20
2022-09-14T11:21:12.123Z,22.23
2022-09-14T11:22:22.290Z,22.25
2022-09-14T11:23:32.878Z,22.24
2022-09-14T11:24:41.333Z,22.23
2022-09-14T11:25:46.432Z,22.20
2022-09-14T11:26:59.147Z,22.16
2022-09-14T11:28:06.294Z,22.09
2022-09-14T11:29:18.833Z,22.03
2022-09-14T11:30:24.617Z,21.96
2022-09-14T11:31:31.399Z,21.87
2022-09-14T11:32:37.831Z,21.81
2022-09-14T11:33:44.958Z,21.76
2022-09-14T11:34:55.235Z,21.72
2022-09-14T11:36:02.889Z,21.69
2022-09-14T11:37:09.265Z,21.68
2022-09-14T11:38:18.574Z,21.70
2022-09-14T11:39:23.726Z,21.73
2022-09-14T11:40:34.267Z,21.77
2022-09-14T11:41:43.423Z,21.76
2022-09-14T11:42:51.252Z,21.76
2022-09-14T11:43:58.398Z,21.76
2022-09-14T11:45:09.432Z,21.75
2022-09-14T11:46:18.243Z,21.72
2022-09-14T11:47:24.816Z,21.65
2022-09-14T11:48:47.694Z,21.55
2022-09-14T11:49:57.770Z,21.41
2022-09-14T11:51:07.187Z,21.30
2022-09-14T11:52:15.334Z,21.26
2022-09-14T11:53:19.422Z,21.26
2022-09-14T11:54:24.412Z,21.24
2022-09-14T11:55:27.434Z,21.21
2022-09-14T11:56:33.408Z,21.18
2022-09-14T11:57:37.224Z,21.13
2022-09-14T11:58:41.535Z,21.10
2022-09-14T11:59:52.224Z,21.09
2022-09-14T12:01:11.803Z,21.05
2022-09-14T12:02:55.233Z,20.95
2022-09-14T12:04:15.358Z,20.79
2022-09-14T12:05:30.140Z,20.64
2022-09-14T12:06:59.621Z,20.54
2022-09-14T12:08:06.365Z,20.48
2022-09-14T12:09:53.934Z,20.45
2022-09-14T12:11:04.993Z,20.41
2022-09-14T12:12:41.556Z,20.40
2022-09-14T12:13:47.938Z,20.35
2022-09-14T12:14:52.044Z,20.28
2022-09-14T12:16:02.538Z,20.21
2022-09-14T12:17:38.215Z,20.11
2022-09-14T12:18:46.680Z,19.97
2022-09-14T12:19:52.563Z,19.86
2022-09-14T12:21:08.355Z,19.77
2022-09-14T12:22:27.842Z,19.67
2022-09-14T12:23:34.388Z,19.57
2022-09-14T12:24:37.386Z,19.47
2022-09-14T12:25:53.971Z,19.37
2022-09-14T12:26:58.495Z,19.27
2022-09-14T12:28:01.714Z,19.18
2022-09-14T12:29:27.952Z,19.10
2022-09-14T12:31:04.496Z,19.00
2022-09-14T12:32:29.555Z,18.91
2022-09-14T12:34:00.291Z,18.87
2022-09-14T12:35:44.249Z,18.83
2022-09-14T12:37:29.243Z,18.75
2022-09-14T12:39:08.855Z,18.60
2022-09-14T12:40:29.097Z,18.53
2022-09-14T12:42:12.838Z,18.52
2022-09-14T12:43:54.433Z,18.52
2022-09-14T12:44:57.633Z,18.53
2022-09-14T12:46:03.367Z,18.57
2022-09-14T12:47:55.885Z,18.62
2022-09-14T12:49:02.935Z,18.62
2022-09-14T12:50:34.541Z,18.65
2022-09-14T12:51:45.655Z,18.70
2022-09-14T12:52:59.823Z,18.79
2022-09-14T12:54:08.339Z,18.86
2022-09-14T12:55:39.930Z,18.93
2022-09-14T12:56:54.068Z,19.02
2022-09-14T12:58:04.454Z,19.06
2022-09-14T12:59:11.305Z,19.10
2022-09-14T13:00:18.553Z,19.13
2022-09-14T13:01:30.448Z,19.16
2022-09-14T13:03:20.665Z,19.18
2022-09-14T13:04:26.274Z,19.13
2022-09-14T13:05:31.563Z,19.12
2022-09-14T13:06:41.269Z,19.07
2022-09-14T13:07:46.115Z,19.03
2022-09-14T13:08:52.203Z,18.97
2022-09-14T13:09:57.043Z,18.94
2022-09-14T13:11:01.162Z,18.89
2022-09-14T13:12:06.222Z,18.87
2022-09-14T13:13:33.846Z,18.80
2022-09-14T13:14:40.704Z,18.70
2022-09-14T13:15:52.462Z,18.65
2022-09-14T13:16:57.931Z,18.59
2022-09-14T13:18:02.771Z,18.54
2022-09-14T13:19:19.345Z,18.49
2022-09-14T13:20:22.574Z,18.46
2022-09-14T13:21:27.131Z,18.44
2022-09-14T13:22:33.401Z,18.39
2022-09-14T13:23:39.734Z,18.33
2022-09-14T13:25:18.506Z,18.22
2022-09-14T13:26:23.604Z,18.15
2022-09-14T13:27:29.542Z,18.09
2022-09-14T13:28:32.628Z,18.04
2022-09-14T13:29:37.017Z,17.99
2022-09-14T13:31:00.894Z,17.96
2022-09-14T13:32:11.658Z,17.90
2022-09-14T13:33:40.813Z,17.86
2022-09-14T13:34:45.053Z,17.81
2022-09-14T13:35:50.643Z,17.76
2022-09-14T13:36:55.201Z,17.74
2022-09-14T13:37:59.037Z,17.71
2022-09-14T13:39:05.406Z,17.68
2022-09-14T13:40:09.531Z,17.66
2022-09-14T13:41:16.397Z,17.66
2022-09-14T13:42:20.014Z,17.68
2022-09-14T13:43:29.261Z,17.68
2022-09-14T13:44:42.947Z,17.69
2022-09-14T13:45:51.210Z,17.72
2022-09-14T13:46:59.487Z,17.75
2022-09-14T13:48:04.147Z,17.82
2022-09-14T13:49:09.173Z,17.89
2022-09-14T13:50:13.442Z,18.00
2022-09-14T13:51:25.325Z,18.11
2022-09-14T13:52:56.935Z,18.26
2022-09-14T13:53:56.979Z,18.39
2022-09-14T13:55:27.833Z,18.53
2022-09-14T13:56:36.250Z,18.60
2022-09-14T13:57:39.461Z,18.62
2022-09-14T13:58:43.844Z,18.63
2022-09-14T14:00:15.619Z,18.64
2022-09-14T14:01:27.701Z,18.66
2022-09-14T14:02:33.249Z,18.68
2022-09-14T14:03:40.368Z,18.72
2022-09-14T14:04:48.581Z,18.78
2022-09-14T14:06:00.590Z,18.82
2022-09-14T14:07:18.070Z,18.86
2022-09-14T14:08:28.479Z,18.88
2022-09-14T14:11:28.210Z,18.99
2022-09-14T14:12:35.129Z,19.07
2022-09-14T14:13:38.765Z,19.12
2022-09-14T14:14:43.426Z,19.17
2022-09-14T14:15:48.134Z,19.24
2022-09-14T14:17:25.510Z,19.29
2022-09-14T14:18:41.205Z,19.27
2022-09-14T14:19:47.655Z,19.27
2022-09-14T14:20:52.421Z,19.26
2022-09-14T14:22:23.724Z,19.31
2022-09-14T14:23:28.105Z,19.30
2022-09-14T14:24:33.717Z,19.31
2022-09-14T14:25:45.494Z,19.34
2022-09-14T14:26:52.751Z,19.40
2022-09-14T14:28:19.411Z,19.40
2022-09-14T14:29:24.233Z,19.38
2022-09-14T14:30:44.688Z,19.41
2022-09-14T14:31:49.602Z,19.42
2022-09-14T14:32:59.233Z,19.42
2022-09-14T14:34:22.427Z,19.41
2022-09-14T14:35:33.720Z,19.36
2022-09-14T14:36:37.964Z,19.32
2022-09-14T14:37:51.975Z,19.29
2022-09-14T14:38:56.558Z,19.29
2022-09-14T14:39:59.563Z,19.29
2022-09-14T14:41:05.178Z,19.29
2022-09-14T14:43:31.155Z,19.32
2022-09-14T14:44:36.924Z,19.32
2022-09-14T14:45:41.256Z,19.37
2022-09-14T14:46:45.833Z,19.41
2022-09-14T14:47:51.034Z,19.42
2022-09-14T14:49:01.162Z,19.37
2022-09-14T14:50:04.787Z,19.32
2022-09-14T14:51:11.844Z,19.27
2022-09-14T14:52:15.433Z,19.22
2022-09-14T14:53:19.477Z,19.15
2022-09-14T14:54:23.825Z,19.08
2022-09-14T14:55:28.494Z,18.99
2022-09-14T14:56:32.647Z,18.94
2022-09-14T14:57:38.564Z,18.88
2022-09-14T14:58:47.249Z,18.83
2022-09-14T14:59:52.985Z,18.79
2022-09-14T15:00:57.098Z,18.74
2022-09-14T15:02:00.417Z,18.71
2022-09-14T15:03:08.090Z,18.69
2022-09-14T15:04:11.184Z,18.67
2022-09-14T15:05:15.547Z,18.64
2022-09-14T15:06:20.755Z,18.61
2022-09-14T15:07:24.757Z,18.56
2022-09-14T15:08:27.843Z,18.54
2022-09-14T15:09:32.920Z,18.53
2022-09-14T15:10:36.077Z,18.48
2022-09-14T15:11:41.288Z,18.44
2022-09-14T15:12:45.965Z,18.41
2022-09-14T15:13:50.564Z,18.39
2022-09-14T15:14:53.686Z,18.38
2022-09-14T15:15:57.757Z,18.36
2022-09-14T15:17:03.000Z,18.34
2022-09-14T15:18:07.204Z,18.33
2022-09-14T15:19:11.894Z,18.32
2022-09-14T15:20:21.555Z,18.30
2022-09-14T15:21:26.576Z,18.31
2022-09-14T15:22:29.578Z,18.31
2022-09-14T15:23:34.045Z,18.33
2022-09-14T15:24:38.723Z,18.34
2022-09-14T15:25:42.471Z,18.35
2022-09-14T15:26:49.311Z,18.38
2022-09-14T15:27:54.053Z,18.40
2022-09-14T15:28:58.394Z,18.43
2022-09-14T15:30:32.851Z,18.48
2022-09-14T15:31:36.413Z,18.47